Time;durP1;ratioP1;P1;durP2;ratioP2;P2;SDS_P1;SDS_P2;PMS_P1;PMS_P2;Temp;Humidity;BMP_temperature;BMP_pressure;BME280_temperature;BME280_humidity;BME280_pressure;Samples;Min_cycle;Max_cycle;Signal;HPM_P1;HPM_P2
2021/03/08 00:00:09;;;;;;;41.85001;21.8;;;;;;;2.62;61.36719;95281.56;;;;
2021/03/08 00:01:14;;;;;;;41.85001;21.8;;;;;;;2.62;61.36719;95281.56;;;;
2021/03/08 00:02:14;;;;;;;41.85001;21.8;;;;;;;2.62;61.36719;95281.56;;;;
2021/03/08 00:03:15;;;;;;;41.85001;21.8;;;;;;;2.62;61.36719;95281.56;;;;
2021/03/08 00:04:16;;;;;;;41.85001;21.8;;;;;;;2.62;61.36719;95281.56;;;;
2021/03/08 00:05:17;;;;;;;41.85001;21.8;;;;;;;2.62;61.36719;95281.56;;;;
2021/03/08 00:06:18;;;;;;;42.4;22.7;;;;;;;2.45;61.66895;95297.01;;;;
2021/03/08 00:07:19;;;;;;;42.4;22.7;;;;;;;2.45;61.66895;95297.01;;;;
2021/03/08 00:08:19;;;;;;;42.4;22.7;;;;;;;2.45;61.66895;95297.01;;;;
2021/03/08 00:09:20;;;;;;;42.4;22.7;;;;;;;2.45;61.66895;95297.01;;;;
2021/03/08 00:10:20;;;;;;;42.4;22.7;;;;;;;2.45;61.66895;95297.01;;;;
2021/03/08 00:11:21;;;;;;;42.4;22.7;;;;;;;2.45;61.66895;95297.01;;;;
2021/03/08 00:12:22;;;;;;;42.4;22.7;;;;;;;2.45;61.66895;95297.01;;;;
2021/03/08 00:13:22;;;;;;;42.4;22.7;;;;;;;2.45;61.66895;95297.01;;;;
2021/03/08 00:14:23;;;;;;;42.4;22.7;;;;;;;2.45;61.66895;95297.01;;;;
2021/03/08 00:15:23;;;;;;;42.4;22.7;;;;;;;2.45;61.66895;95297.01;;;;
2021/03/08 00:16:24;;;;;;;42.4;22.7;;;;;;;2.45;61.66895;95297.01;;;;
2021/03/08 00:17:25;;;;;;;51.1;24.7;;;;;;;2.48;61.91602;95304.66;;;;
2021/03/08 00:18:25;;;;;;;51.1;24.7;;;;;;;2.48;61.91602;95304.66;;;;
2021/03/08 00:19:26;;;;;;;51.1;24.7;;;;;;;2.48;61.91602;95304.66;;;;
2021/03/08 00:20:27;;;;;;;51.1;24.7;;;;;;;2.48;61.91602;95304.66;;;;
2021/03/08 00:21:28;;;;;;;51.1;24.7;;;;;;;2.48;61.91602;95304.66;;;;
2021/03/08 00:22:28;;;;;;;51.1;24.7;;;;;;;2.48;61.91602;95304.66;;;;
2021/03/08 00:23:29;;;;;;;51.1;24.7;;;;;;;2.48;61.91602;95304.66;;;;
2021/03/08 00:24:29;;;;;;;51.1;24.7;;;;;;;2.48;61.91602;95304.66;;;;
2021/03/08 00:25:30;;;;;;;51.1;24.7;;;;;;;2.48;61.91602;95304.66;;;;
2021/03/08 00:26:33;;;;;;;51.1;24.7;;;;;;;2.48;61.91602;95304.66;;;;
2021/03/08 00:27:33;;;;;;;41.25;21.85;;;;;;;2.5;61.99219;95268.38;;;;
2021/03/08 00:28:34;;;;;;;41.25;21.85;;;;;;;2.5;61.99219;95268.38;;;;
2021/03/08 00:29:34;;;;;;;41.25;21.85;;;;;;;2.5;61.99219;95268.38;;;;
2021/03/08 00:30:35;;;;;;;41.25;21.85;;;;;;;2.5;61.99219;95268.38;;;;
2021/03/08 00:31:35;;;;;;;41.25;21.85;;;;;;;2.5;61.99219;95268.38;;;;
2021/03/08 00:32:36;;;;;;;41.25;21.85;;;;;;;2.5;61.99219;95268.38;;;;
2021/03/08 00:33:37;;;;;;;41.25;21.85;;;;;;;2.5;61.99219;95268.38;;;;
2021/03/08 00:34:38;;;;;;;41.25;21.85;;;;;;;2.5;61.99219;95268.38;;;;
2021/03/08 00:35:38;;;;;;;41.25;21.85;;;;;;;2.5;61.99219;95268.38;;;;
2021/03/08 00:36:39;;;;;;;41.25;21.85;;;;;;;2.5;61.99219;95268.38;;;;
2021/03/08 00:37:39;;;;;;;41.25;21.85;;;;;;;2.5;61.99219;95268.38;;;;
2021/03/08 00:38:41;;;;;;;41.25;22.2;;;;;;;2.16;62.38574;95286.91;;;;
2021/03/08 00:39:41;;;;;;;41.25;22.2;;;;;;;2.16;62.38574;95286.91;;;;
2021/03/08 00:40:42;;;;;;;41.25;22.2;;;;;;;2.16;62.38574;95286.91;;;;
2021/03/08 00:41:42;;;;;;;41.25;22.2;;;;;;;2.16;62.38574;95286.91;;;;
2021/03/08 00:42:43;;;;;;;41.25;22.2;;;;;;;2.16;62.38574;95286.91;;;;
2021/03/08 00:43:44;;;;;;;41.25;22.2;;;;;;;2.16;62.38574;95286.91;;;;
2021/03/08 00:44:44;;;;;;;41.25;22.2;;;;;;;2.16;62.38574;95286.91;;;;
2021/03/08 00:45:45;;;;;;;41.25;22.2;;;;;;;2.16;62.38574;95286.91;;;;
2021/03/08 00:46:45;;;;;;;41.25;22.2;;;;;;;2.16;62.38574;95286.91;;;;
2021/03/08 00:47:46;;;;;;;41.25;22.2;;;;;;;2.16;62.38574;95286.91;;;;
2021/03/08 00:48:47;;;;;;;42.45;22;;;;;;;2.03;62.81836;95293.3;;;;
2021/03/08 00:49:47;;;;;;;42.45;22;;;;;;;2.03;62.81836;95293.3;;;;
2021/03/08 00:50:49;;;;;;;42.45;22;;;;;;;2.03;62.81836;95293.3;;;;
2021/03/08 00:51:49;;;;;;;42.45;22;;;;;;;2.03;62.81836;95293.3;;;;
2021/03/08 00:52:50;;;;;;;42.45;22;;;;;;;2.03;62.81836;95293.3;;;;
2021/03/08 00:53:51;;;;;;;42.45;22;;;;;;;2.03;62.81836;95293.3;;;;
2021/03/08 00:54:52;;;;;;;42.45;22;;;;;;;2.03;62.81836;95293.3;;;;
2021/03/08 00:55:52;;;;;;;42.45;22;;;;;;;2.03;62.81836;95293.3;;;;
2021/03/08 00:56:53;;;;;;;42.45;22;;;;;;;2.03;62.81836;95293.3;;;;
2021/03/08 00:57:53;;;;;;;42.45;22;;;;;;;2.03;62.81836;95293.3;;;;
2021/03/08 00:58:54;;;;;;;42.45;22;;;;;;;2.03;62.81836;95293.3;;;;
2021/03/08 00:59:54;;;;;;;42.35;21.75;;;;;;;1.98;62.74707;95273.55;;;;
2021/03/08 01:00:55;;;;;;;42.35;21.75;;;;;;;1.98;62.74707;95273.55;;;;
2021/03/08 01:01:55;;;;;;;42.35;21.75;;;;;;;1.98;62.74707;95273.55;;;;
2021/03/08 01:02:56;;;;;;;42.35;21.75;;;;;;;1.98;62.74707;95273.55;;;;
2021/03/08 01:03:57;;;;;;;42.35;21.75;;;;;;;1.98;62.74707;95273.55;;;;
2021/03/08 01:04:57;;;;;;;42.35;21.75;;;;;;;1.98;62.74707;95273.55;;;;
2021/03/08 01:05:58;;;;;;;42.35;21.75;;;;;;;1.98;62.74707;95273.55;;;;
2021/03/08 01:06:58;;;;;;;42.35;21.75;;;;;;;1.98;62.74707;95273.55;;;;
2021/03/08 01:07:59;;;;;;;42.35;21.75;;;;;;;1.98;62.74707;95273.55;;;;
2021/03/08 01:09:00;;;;;;;42.35;21.75;;;;;;;1.98;62.74707;95273.55;;;;
2021/03/08 01:10:00;;;;;;;42.35;21.75;;;;;;;1.98;62.74707;95273.55;;;;
2021/03/08 01:11:05;;;;;;;42.65;21.25;;;;;;;1.82;62.96582;95285.71;;;;
2021/03/08 01:12:06;;;;;;;42.65;21.25;;;;;;;1.82;62.96582;95285.71;;;;
2021/03/08 01:13:08;;;;;;;42.65;21.25;;;;;;;1.82;62.96582;95285.71;;;;
2021/03/08 01:14:09;;;;;;;42.65;21.25;;;;;;;1.82;62.96582;95285.71;;;;
2021/03/08 01:15:10;;;;;;;42.65;21.25;;;;;;;1.82;62.96582;95285.71;;;;
2021/03/08 01:16:12;;;;;;;42.65;21.25;;;;;;;1.82;62.96582;95285.71;;;;
2021/03/08 01:17:12;;;;;;;42.65;21.25;;;;;;;1.82;62.96582;95285.71;;;;
2021/03/08 01:18:13;;;;;;;42.65;21.25;;;;;;;1.82;62.96582;95285.71;;;;
2021/03/08 01:19:14;;;;;;;42.65;21.25;;;;;;;1.82;62.96582;95285.71;;;;
2021/03/08 01:20:14;;;;;;;42.65;21.25;;;;;;;1.82;62.96582;95285.71;;;;
2021/03/08 01:21:17;;;;;;;43.14999;22.15;;;;;;;1.73;63.05859;95272.55;;;;
2021/03/08 01:22:18;;;;;;;43.14999;22.15;;;;;;;1.73;63.05859;95272.55;;;;
2021/03/08 01:23:19;;;;;;;43.14999;22.15;;;;;;;1.73;63.05859;95272.55;;;;
2021/03/08 01:24:19;;;;;;;43.14999;22.15;;;;;;;1.73;63.05859;95272.55;;;;
2021/03/08 01:25:20;;;;;;;43.14999;22.15;;;;;;;1.73;63.05859;95272.55;;;;
2021/03/08 01:26:22;;;;;;;43.14999;22.15;;;;;;;1.73;63.05859;95272.55;;;;
2021/03/08 01:27:23;;;;;;;43.14999;22.15;;;;;;;1.73;63.05859;95272.55;;;;
2021/03/08 01:28:23;;;;;;;43.14999;22.15;;;;;;;1.73;63.05859;95272.55;;;;
2021/03/08 01:29:24;;;;;;;43.14999;22.15;;;;;;;1.73;63.05859;95272.55;;;;
2021/03/08 01:30:25;;;;;;;43.14999;22.15;;;;;;;1.73;63.05859;95272.55;;;;
2021/03/08 01:31:28;;;;;;;49.09999;24.7;;;;;;;1.77;63.31641;95276.09;;;;
2021/03/08 01:32:28;;;;;;;49.09999;24.7;;;;;;;1.77;63.31641;95276.09;;;;
2021/03/08 01:33:29;;;;;;;49.09999;24.7;;;;;;;1.77;63.31641;95276.09;;;;
2021/03/08 01:34:29;;;;;;;49.09999;24.7;;;;;;;1.77;63.31641;95276.09;;;;
2021/03/08 01:35:30;;;;;;;49.09999;24.7;;;;;;;1.77;63.31641;95276.09;;;;
2021/03/08 01:36:30;;;;;;;49.09999;24.7;;;;;;;1.77;63.31641;95276.09;;;;
2021/03/08 01:37:31;;;;;;;49.09999;24.7;;;;;;;1.77;63.31641;95276.09;;;;
2021/03/08 01:38:32;;;;;;;49.09999;24.7;;;;;;;1.77;63.31641;95276.09;;;;
2021/03/08 01:39:33;;;;;;;49.09999;24.7;;;;;;;1.77;63.31641;95276.09;;;;
2021/03/08 01:40:33;;;;;;;49.09999;24.7;;;;;;;1.77;63.31641;95276.09;;;;
2021/03/08 01:41:38;;;;;;;49.09999;24.7;;;;;;;1.77;63.31641;95276.09;;;;
2021/03/08 01:42:38;;;;;;;52.94999;24.74999;;;;;;;1.89;63.2832;95254.58;;;;
2021/03/08 01:43:41;;;;;;;52.94999;24.74999;;;;;;;1.89;63.2832;95254.58;;;;
2021/03/08 01:44:42;;;;;;;52.94999;24.74999;;;;;;;1.89;63.2832;95254.58;;;;
2021/03/08 01:45:42;;;;;;;52.94999;24.74999;;;;;;;1.89;63.2832;95254.58;;;;
2021/03/08 01:46:43;;;;;;;52.94999;24.74999;;;;;;;1.89;63.2832;95254.58;;;;
2021/03/08 01:47:43;;;;;;;52.94999;24.74999;;;;;;;1.89;63.2832;95254.58;;;;
2021/03/08 01:48:46;;;;;;;52.94999;24.74999;;;;;;;1.89;63.2832;95254.58;;;;
2021/03/08 01:49:47;;;;;;;52.94999;24.74999;;;;;;;1.89;63.2832;95254.58;;;;
2021/03/08 01:50:47;;;;;;;52.94999;24.74999;;;;;;;1.89;63.2832;95254.58;;;;
2021/03/08 01:51:49;;;;;;;52.94999;24.74999;;;;;;;1.89;63.2832;95254.58;;;;
2021/03/08 01:52:51;;;;;;;48.7;24.15;;;;;;;2.02;63.31152;95256.59;;;;
2021/03/08 01:53:52;;;;;;;48.7;24.15;;;;;;;2.02;63.31152;95256.59;;;;
2021/03/08 01:54:52;;;;;;;48.7;24.15;;;;;;;2.02;63.31152;95256.59;;;;
2021/03/08 01:55:53;;;;;;;48.7;24.15;;;;;;;2.02;63.31152;95256.59;;;;
2021/03/08 01:56:55;;;;;;;48.7;24.15;;;;;;;2.02;63.31152;95256.59;;;;
2021/03/08 01:57:57;;;;;;;48.7;24.15;;;;;;;2.02;63.31152;95256.59;;;;
2021/03/08 01:58:58;;;;;;;48.7;24.15;;;;;;;2.02;63.31152;95256.59;;;;
2021/03/08 01:59:59;;;;;;;48.7;24.15;;;;;;;2.02;63.31152;95256.59;;;;
2021/03/08 02:00:59;;;;;;;48.7;24.15;;;;;;;2.02;63.31152;95256.59;;;;
2021/03/08 02:02:00;;;;;;;48.7;24.15;;;;;;;2.02;63.31152;95256.59;;;;
2021/03/08 02:03:02;;;;;;;48.7;24.15;;;;;;;2.02;63.31152;95256.59;;;;
2021/03/08 02:04:04;;;;;;;49.3;24.85;;;;;;;2.12;63.49609;95249.97;;;;
2021/03/08 02:05:05;;;;;;;49.3;24.85;;;;;;;2.12;63.49609;95249.97;;;;
2021/03/08 02:06:09;;;;;;;49.3;24.85;;;;;;;2.12;63.49609;95249.97;;;;
2021/03/08 02:07:10;;;;;;;49.3;24.85;;;;;;;2.12;63.49609;95249.97;;;;
2021/03/08 02:08:10;;;;;;;49.3;24.85;;;;;;;2.12;63.49609;95249.97;;;;
2021/03/08 02:09:13;;;;;;;49.3;24.85;;;;;;;2.12;63.49609;95249.97;;;;
2021/03/08 02:10:15;;;;;;;49.3;24.85;;;;;;;2.12;63.49609;95249.97;;;;
2021/03/08 02:11:17;;;;;;;49.3;24.85;;;;;;;2.12;63.49609;95249.97;;;;
2021/03/08 02:12:17;;;;;;;49.3;24.85;;;;;;;2.12;63.49609;95249.97;;;;
2021/03/08 02:13:27;;;;;;;49.3;24.85;;;;;;;2.12;63.49609;95249.97;;;;
2021/03/08 02:14:47;;;;;;;43.95;23.3;;;;;;;2.1;63.48047;95233.46;;;;
2021/03/08 02:16:12;;;;;;;43.95;23.3;;;;;;;2.1;63.48047;95233.46;;;;
2021/03/08 02:17:19;;;;;;;43.95;23.3;;;;;;;2.1;63.48047;95233.46;;;;
2021/03/08 02:18:26;;;;;;;43.95;23.3;;;;;;;2.1;63.48047;95233.46;;;;
2021/03/08 02:19:37;;;;;;;43.95;23.3;;;;;;;2.1;63.48047;95233.46;;;;
2021/03/08 02:25:06;;;;;;;40.25;22.35;;;;;;;2.05;63.72656;95225.2;;;;
2021/03/08 02:26:35;;;;;;;40.25;22.35;;;;;;;2.05;63.72656;95225.2;;;;
2021/03/08 02:27:44;;;;;;;40.25;22.35;;;;;;;2.05;63.72656;95225.2;;;;
2021/03/08 02:29:27;;;;;;;40.25;22.35;;;;;;;2.05;63.72656;95225.2;;;;
2021/03/08 02:30:53;;;;;;;40.25;22.35;;;;;;;2.05;63.72656;95225.2;;;;
2021/03/08 02:32:00;;;;;;;40.25;22.35;;;;;;;2.05;63.72656;95225.2;;;;
2021/03/08 02:33:05;;;;;;;40.25;22.35;;;;;;;2.05;63.72656;95225.2;;;;
2021/03/08 02:34:09;;;;;;;40.25;22.35;;;;;;;2.05;63.72656;95225.2;;;;
2021/03/08 02:35:14;;;;;;;40.25;22.35;;;;;;;2.05;63.72656;95225.2;;;;
2021/03/08 02:36:19;;;;;;;40.25;22.15;;;;;;;2;63.92969;95230.66;;;;
2021/03/08 02:37:22;;;;;;;40.25;22.15;;;;;;;2;63.92969;95230.66;;;;
2021/03/08 02:38:26;;;;;;;40.25;22.15;;;;;;;2;63.92969;95230.66;;;;
2021/03/08 02:39:30;;;;;;;40.25;22.15;;;;;;;2;63.92969;95230.66;;;;
2021/03/08 02:40:35;;;;;;;40.25;22.15;;;;;;;2;63.92969;95230.66;;;;
2021/03/08 02:41:40;;;;;;;40.25;22.15;;;;;;;2;63.92969;95230.66;;;;
2021/03/08 02:42:44;;;;;;;40.25;22.15;;;;;;;2;63.92969;95230.66;;;;
2021/03/08 02:43:51;;;;;;;40.25;22.15;;;;;;;2;63.92969;95230.66;;;;
2021/03/08 02:44:56;;;;;;;40.25;22.15;;;;;;;2;63.92969;95230.66;;;;
2021/03/08 02:46:00;;;;;;;40.25;22.15;;;;;;;2;63.92969;95230.66;;;;
2021/03/08 02:47:06;;;;;;;36.60001;20;;;;;;;1.71;64.37012;95209.4;;;;
2021/03/08 02:48:08;;;;;;;36.60001;20;;;;;;;1.71;64.37012;95209.4;;;;
2021/03/08 02:49:11;;;;;;;36.60001;20;;;;;;;1.71;64.37012;95209.4;;;;
2021/03/08 02:50:15;;;;;;;36.60001;20;;;;;;;1.71;64.37012;95209.4;;;;
2021/03/08 02:51:18;;;;;;;36.60001;20;;;;;;;1.71;64.37012;95209.4;;;;
2021/03/08 02:52:22;;;;;;;36.60001;20;;;;;;;1.71;64.37012;95209.4;;;;
2021/03/08 02:53:27;;;;;;;36.60001;20;;;;;;;1.71;64.37012;95209.4;;;;
2021/03/08 02:54:32;;;;;;;36.60001;20;;;;;;;1.71;64.37012;95209.4;;;;
2021/03/08 02:55:34;;;;;;;36.60001;20;;;;;;;1.71;64.37012;95209.4;;;;
2021/03/08 02:56:41;;;;;;;36.60001;20;;;;;;;1.71;64.37012;95209.4;;;;
2021/03/08 02:57:43;;;;;;;39.5;20.25;;;;;;;1.2;64.71289;95209.34;;;;
2021/03/08 02:58:46;;;;;;;39.5;20.25;;;;;;;1.2;64.71289;95209.34;;;;
2021/03/08 02:59:50;;;;;;;39.5;20.25;;;;;;;1.2;64.71289;95209.34;;;;
2021/03/08 03:00:53;;;;;;;39.5;20.25;;;;;;;1.2;64.71289;95209.34;;;;
2021/03/08 03:01:56;;;;;;;39.5;20.25;;;;;;;1.2;64.71289;95209.34;;;;
2021/03/08 03:02:59;;;;;;;39.5;20.25;;;;;;;1.2;64.71289;95209.34;;;;
2021/03/08 03:04:00;;;;;;;39.5;20.25;;;;;;;1.2;64.71289;95209.34;;;;
2021/03/08 03:05:06;;;;;;;39.5;20.25;;;;;;;1.2;64.71289;95209.34;;;;
2021/03/08 03:06:10;;;;;;;39.5;20.25;;;;;;;1.2;64.71289;95209.34;;;;
2021/03/08 03:07:12;;;;;;;39.5;20.25;;;;;;;1.2;64.71289;95209.34;;;;
2021/03/08 03:08:13;;;;;;;38.4;20.35;;;;;;;0.73;65.17676;95210.08;;;;
2021/03/08 03:09:15;;;;;;;38.4;20.35;;;;;;;0.73;65.17676;95210.08;;;;
2021/03/08 03:10:18;;;;;;;38.4;20.35;;;;;;;0.73;65.17676;95210.08;;;;
2021/03/08 03:11:19;;;;;;;38.4;20.35;;;;;;;0.73;65.17676;95210.08;;;;
2021/03/08 03:12:21;;;;;;;38.4;20.35;;;;;;;0.73;65.17676;95210.08;;;;
2021/03/08 03:13:22;;;;;;;38.4;20.35;;;;;;;0.73;65.17676;95210.08;;;;
2021/03/08 03:14:23;;;;;;;38.4;20.35;;;;;;;0.73;65.17676;95210.08;;;;
2021/03/08 03:15:25;;;;;;;38.4;20.35;;;;;;;0.73;65.17676;95210.08;;;;
2021/03/08 03:16:26;;;;;;;38.4;20.35;;;;;;;0.73;65.17676;95210.08;;;;
2021/03/08 03:17:28;;;;;;;38.4;20.35;;;;;;;0.73;65.17676;95210.08;;;;
2021/03/08 03:18:31;;;;;;;45.35;22.55;;;;;;;0.46;65.50098;95220.31;;;;
2021/03/08 03:19:34;;;;;;;45.35;22.55;;;;;;;0.46;65.50098;95220.31;;;;
2021/03/08 03:20:38;;;;;;;45.35;22.55;;;;;;;0.46;65.50098;95220.31;;;;
2021/03/08 03:21:40;;;;;;;45.35;22.55;;;;;;;0.46;65.50098;95220.31;;;;
2021/03/08 03:22:43;;;;;;;45.35;22.55;;;;;;;0.46;65.50098;95220.31;;;;
2021/03/08 03:23:46;;;;;;;45.35;22.55;;;;;;;0.46;65.50098;95220.31;;;;
2021/03/08 03:24:49;;;;;;;45.35;22.55;;;;;;;0.46;65.50098;95220.31;;;;
2021/03/08 03:25:53;;;;;;;45.35;22.55;;;;;;;0.46;65.50098;95220.31;;;;
2021/03/08 03:26:56;;;;;;;45.35;22.55;;;;;;;0.46;65.50098;95220.31;;;;
2021/03/08 03:27:58;;;;;;;45.35;22.55;;;;;;;0.46;65.50098;95220.31;;;;
2021/03/08 03:28:59;;;;;;;45.75;22.3;;;;;;;0.44;65.53027;95222.31;;;;
2021/03/08 03:30:04;;;;;;;45.75;22.3;;;;;;;0.44;65.53027;95222.31;;;;
2021/03/08 03:31:07;;;;;;;45.75;22.3;;;;;;;0.44;65.53027;95222.31;;;;
2021/03/08 03:32:08;;;;;;;45.75;22.3;;;;;;;0.44;65.53027;95222.31;;;;
2021/03/08 03:33:10;;;;;;;45.75;22.3;;;;;;;0.44;65.53027;95222.31;;;;
2021/03/08 03:34:13;;;;;;;45.75;22.3;;;;;;;0.44;65.53027;95222.31;;;;
2021/03/08 03:35:15;;;;;;;45.75;22.3;;;;;;;0.44;65.53027;95222.31;;;;
2021/03/08 03:36:19;;;;;;;45.75;22.3;;;;;;;0.44;65.53027;95222.31;;;;
2021/03/08 03:37:21;;;;;;;45.75;22.3;;;;;;;0.44;65.53027;95222.31;;;;
2021/03/08 03:38:26;;;;;;;45.75;22.3;;;;;;;0.44;65.53027;95222.31;;;;
2021/03/08 03:39:26;;;;;;;40.65;21.85;;;;;;;0.34;65.63086;95221.62;;;;
2021/03/08 03:40:28;;;;;;;40.65;21.85;;;;;;;0.34;65.63086;95221.62;;;;
2021/03/08 03:41:28;;;;;;;40.65;21.85;;;;;;;0.34;65.63086;95221.62;;;;
2021/03/08 03:42:29;;;;;;;40.65;21.85;;;;;;;0.34;65.63086;95221.62;;;;
2021/03/08 03:43:29;;;;;;;40.65;21.85;;;;;;;0.34;65.63086;95221.62;;;;
2021/03/08 03:44:30;;;;;;;40.65;21.85;;;;;;;0.34;65.63086;95221.62;;;;
2021/03/08 03:45:31;;;;;;;40.65;21.85;;;;;;;0.34;65.63086;95221.62;;;;
2021/03/08 03:46:32;;;;;;;40.65;21.85;;;;;;;0.34;65.63086;95221.62;;;;
2021/03/08 03:47:35;;;;;;;40.65;21.85;;;;;;;0.34;65.63086;95221.62;;;;
2021/03/08 03:48:37;;;;;;;40.65;21.85;;;;;;;0.34;65.63086;95221.62;;;;
2021/03/08 03:49:37;;;;;;;40.65;21.85;;;;;;;0.34;65.63086;95221.62;;;;
2021/03/08 03:50:38;;;;;;;38.95;20.85;;;;;;;0.2;65.55664;95235.64;;;;
2021/03/08 03:51:39;;;;;;;38.95;20.85;;;;;;;0.2;65.55664;95235.64;;;;
2021/03/08 03:52:40;;;;;;;38.95;20.85;;;;;;;0.2;65.55664;95235.64;;;;
2021/03/08 03:53:41;;;;;;;38.95;20.85;;;;;;;0.2;65.55664;95235.64;;;;
2021/03/08 03:54:42;;;;;;;38.95;20.85;;;;;;;0.2;65.55664;95235.64;;;;
2021/03/08 03:55:42;;;;;;;38.95;20.85;;;;;;;0.2;65.55664;95235.64;;;;
2021/03/08 03:56:43;;;;;;;38.95;20.85;;;;;;;0.2;65.55664;95235.64;;;;
2021/03/08 03:57:47;;;;;;;38.95;20.85;;;;;;;0.2;65.55664;95235.64;;;;
2021/03/08 03:58:56;;;;;;;38.95;20.85;;;;;;;0.2;65.55664;95235.64;;;;
2021/03/08 04:00:02;;;;;;;38.95;20.85;;;;;;;0.2;65.55664;95235.64;;;;
2021/03/08 04:01:06;;;;;;;44.75;20.85;;;;;;;0.02;65.70703;95241.28;;;;
2021/03/08 04:02:11;;;;;;;44.75;20.85;;;;;;;0.02;65.70703;95241.28;;;;
2021/03/08 04:03:16;;;;;;;44.75;20.85;;;;;;;0.02;65.70703;95241.28;;;;
2021/03/08 04:04:20;;;;;;;44.75;20.85;;;;;;;0.02;65.70703;95241.28;;;;
2021/03/08 04:05:27;;;;;;;44.75;20.85;;;;;;;0.02;65.70703;95241.28;;;;
2021/03/08 04:06:28;;;;;;;44.75;20.85;;;;;;;0.02;65.70703;95241.28;;;;
2021/03/08 04:07:33;;;;;;;44.75;20.85;;;;;;;0.02;65.70703;95241.28;;;;
2021/03/08 04:08:38;;;;;;;44.75;20.85;;;;;;;0.02;65.70703;95241.28;;;;
2021/03/08 04:09:44;;;;;;;44.75;20.85;;;;;;;0.02;65.70703;95241.28;;;;
2021/03/08 04:10:49;;;;;;;44.75;20.85;;;;;;;0.02;65.70703;95241.28;;;;
2021/03/08 04:11:51;;;;;;;40.6;20.05;;;;;;;-0.15;65.90039;95241.05;;;;
2021/03/08 04:12:55;;;;;;;40.6;20.05;;;;;;;-0.15;65.90039;95241.05;;;;
2021/03/08 04:14:02;;;;;;;40.6;20.05;;;;;;;-0.15;65.90039;95241.05;;;;
2021/03/08 04:15:04;;;;;;;40.6;20.05;;;;;;;-0.15;65.90039;95241.05;;;;
2021/03/08 04:16:08;;;;;;;40.6;20.05;;;;;;;-0.15;65.90039;95241.05;;;;
2021/03/08 04:17:09;;;;;;;40.6;20.05;;;;;;;-0.15;65.90039;95241.05;;;;
2021/03/08 04:18:10;;;;;;;40.6;20.05;;;;;;;-0.15;65.90039;95241.05;;;;
2021/03/08 04:19:11;;;;;;;40.6;20.05;;;;;;;-0.15;65.90039;95241.05;;;;
2021/03/08 04:20:13;;;;;;;40.6;20.05;;;;;;;-0.15;65.90039;95241.05;;;;
2021/03/08 04:21:18;;;;;;;40.6;20.05;;;;;;;-0.15;65.90039;95241.05;;;;
2021/03/08 04:22:19;;;;;;;44.15;22;;;;;;;-0.35;66.21484;95253.88;;;;
2021/03/08 04:23:20;;;;;;;44.15;22;;;;;;;-0.35;66.21484;95253.88;;;;
2021/03/08 04:24:22;;;;;;;44.15;22;;;;;;;-0.35;66.21484;95253.88;;;;
2021/03/08 04:25:22;;;;;;;44.15;22;;;;;;;-0.35;66.21484;95253.88;;;;
2021/03/08 04:26:24;;;;;;;44.15;22;;;;;;;-0.35;66.21484;95253.88;;;;
2021/03/08 04:27:26;;;;;;;44.15;22;;;;;;;-0.35;66.21484;95253.88;;;;
2021/03/08 04:28:28;;;;;;;44.15;22;;;;;;;-0.35;66.21484;95253.88;;;;
2021/03/08 04:29:29;;;;;;;44.15;22;;;;;;;-0.35;66.21484;95253.88;;;;
2021/03/08 04:30:31;;;;;;;44.15;22;;;;;;;-0.35;66.21484;95253.88;;;;
2021/03/08 04:31:32;;;;;;;44.15;22;;;;;;;-0.35;66.21484;95253.88;;;;
2021/03/08 04:32:34;;;;;;;44.15;22;;;;;;;-0.35;66.21484;95253.88;;;;
2021/03/08 04:33:35;;;;;;;44.55;22.25;;;;;;;-0.51;66.1377;95262.78;;;;
2021/03/08 04:34:37;;;;;;;44.55;22.25;;;;;;;-0.51;66.1377;95262.78;;;;
2021/03/08 04:35:38;;;;;;;44.55;22.25;;;;;;;-0.51;66.1377;95262.78;;;;
2021/03/08 04:36:39;;;;;;;44.55;22.25;;;;;;;-0.51;66.1377;95262.78;;;;
2021/03/08 04:37:41;;;;;;;44.55;22.25;;;;;;;-0.51;66.1377;95262.78;;;;
2021/03/08 04:38:41;;;;;;;44.55;22.25;;;;;;;-0.51;66.1377;95262.78;;;;
2021/03/08 04:39:44;;;;;;;44.55;22.25;;;;;;;-0.51;66.1377;95262.78;;;;
2021/03/08 04:40:46;;;;;;;44.55;22.25;;;;;;;-0.51;66.1377;95262.78;;;;
2021/03/08 04:41:49;;;;;;;44.55;22.25;;;;;;;-0.51;66.1377;95262.78;;;;
2021/03/08 04:42:51;;;;;;;44.55;22.25;;;;;;;-0.51;66.1377;95262.78;;;;
2021/03/08 04:43:53;;;;;;;43.85001;22.65;;;;;;;-0.67;66.25879;95263.73;;;;
2021/03/08 04:44:54;;;;;;;43.85001;22.65;;;;;;;-0.67;66.25879;95263.73;;;;
2021/03/08 04:45:56;;;;;;;43.85001;22.65;;;;;;;-0.67;66.25879;95263.73;;;;
2021/03/08 04:46:57;;;;;;;43.85001;22.65;;;;;;;-0.67;66.25879;95263.73;;;;
2021/03/08 04:47:58;;;;;;;43.85001;22.65;;;;;;;-0.67;66.25879;95263.73;;;;
2021/03/08 04:48:59;;;;;;;43.85001;22.65;;;;;;;-0.67;66.25879;95263.73;;;;
2021/03/08 04:50:00;;;;;;;43.85001;22.65;;;;;;;-0.67;66.25879;95263.73;;;;
2021/03/08 04:51:02;;;;;;;43.85001;22.65;;;;;;;-0.67;66.25879;95263.73;;;;
2021/03/08 04:52:05;;;;;;;43.85001;22.65;;;;;;;-0.67;66.25879;95263.73;;;;
2021/03/08 04:53:07;;;;;;;43.85001;22.65;;;;;;;-0.67;66.25879;95263.73;;;;
2021/03/08 04:54:09;;;;;;;40.4;21.65;;;;;;;-0.81;66.41406;95262.57;;;;
2021/03/08 04:55:09;;;;;;;40.4;21.65;;;;;;;-0.81;66.41406;95262.57;;;;
2021/03/08 04:56:13;;;;;;;40.4;21.65;;;;;;;-0.81;66.41406;95262.57;;;;
2021/03/08 04:57:15;;;;;;;40.4;21.65;;;;;;;-0.81;66.41406;95262.57;;;;
2021/03/08 04:58:20;;;;;;;40.4;21.65;;;;;;;-0.81;66.41406;95262.57;;;;
2021/03/08 04:59:21;;;;;;;40.4;21.65;;;;;;;-0.81;66.41406;95262.57;;;;
2021/03/08 05:00:22;;;;;;;40.4;21.65;;;;;;;-0.81;66.41406;95262.57;;;;
2021/03/08 05:01:23;;;;;;;40.4;21.65;;;;;;;-0.81;66.41406;95262.57;;;;
2021/03/08 05:02:26;;;;;;;40.4;21.65;;;;;;;-0.81;66.41406;95262.57;;;;
2021/03/08 05:03:29;;;;;;;40.4;21.65;;;;;;;-0.81;66.41406;95262.57;;;;
2021/03/08 05:04:33;;;;;;;40.4;21.65;;;;;;;-0.81;66.41406;95262.57;;;;
2021/03/08 05:05:37;;;;;;;45.3;22.65;;;;;;;-0.96;66.48535;95262.52;;;;
2021/03/08 05:06:39;;;;;;;45.3;22.65;;;;;;;-0.96;66.48535;95262.52;;;;
2021/03/08 05:07:41;;;;;;;45.3;22.65;;;;;;;-0.96;66.48535;95262.52;;;;
2021/03/08 05:08:43;;;;;;;45.3;22.65;;;;;;;-0.96;66.48535;95262.52;;;;
2021/03/08 05:09:47;;;;;;;45.3;22.65;;;;;;;-0.96;66.48535;95262.52;;;;
2021/03/08 05:10:49;;;;;;;45.3;22.65;;;;;;;-0.96;66.48535;95262.52;;;;
2021/03/08 05:11:51;;;;;;;45.3;22.65;;;;;;;-0.96;66.48535;95262.52;;;;
2021/03/08 05:12:53;;;;;;;45.3;22.65;;;;;;;-0.96;66.48535;95262.52;;;;
2021/03/08 05:13:56;;;;;;;45.3;22.65;;;;;;;-0.96;66.48535;95262.52;;;;
2021/03/08 05:14:57;;;;;;;45.3;22.65;;;;;;;-0.96;66.48535;95262.52;;;;
2021/03/08 05:16:02;;;;;;;45.7;23.65;;;;;;;-1.08;66.51953;95266.4;;;;
2021/03/08 05:17:04;;;;;;;45.7;23.65;;;;;;;-1.08;66.51953;95266.4;;;;
2021/03/08 05:18:07;;;;;;;45.7;23.65;;;;;;;-1.08;66.51953;95266.4;;;;
2021/03/08 05:19:09;;;;;;;45.7;23.65;;;;;;;-1.08;66.51953;95266.4;;;;
2021/03/08 05:20:11;;;;;;;45.7;23.65;;;;;;;-1.08;66.51953;95266.4;;;;
2021/03/08 05:21:14;;;;;;;45.7;23.65;;;;;;;-1.08;66.51953;95266.4;;;;
2021/03/08 05:22:16;;;;;;;45.7;23.65;;;;;;;-1.08;66.51953;95266.4;;;;
2021/03/08 05:23:18;;;;;;;45.7;23.65;;;;;;;-1.08;66.51953;95266.4;;;;
2021/03/08 05:24:19;;;;;;;45.7;23.65;;;;;;;-1.08;66.51953;95266.4;;;;
2021/03/08 05:25:20;;;;;;;45.7;23.65;;;;;;;-1.08;66.51953;95266.4;;;;
2021/03/08 05:26:23;;;;;;;47.95;23.9;;;;;;;-1.19;66.5957;95268.05;;;;
2021/03/08 05:27:25;;;;;;;47.95;23.9;;;;;;;-1.19;66.5957;95268.05;;;;
2021/03/08 05:28:26;;;;;;;47.95;23.9;;;;;;;-1.19;66.5957;95268.05;;;;
2021/03/08 05:29:30;;;;;;;47.95;23.9;;;;;;;-1.19;66.5957;95268.05;;;;
2021/03/08 05:30:31;;;;;;;47.95;23.9;;;;;;;-1.19;66.5957;95268.05;;;;
2021/03/08 05:31:32;;;;;;;47.95;23.9;;;;;;;-1.19;66.5957;95268.05;;;;
2021/03/08 05:32:35;;;;;;;47.95;23.9;;;;;;;-1.19;66.5957;95268.05;;;;
2021/03/08 05:33:41;;;;;;;47.95;23.9;;;;;;;-1.19;66.5957;95268.05;;;;
2021/03/08 05:34:44;;;;;;;47.95;23.9;;;;;;;-1.19;66.5957;95268.05;;;;
2021/03/08 05:35:48;;;;;;;47.95;23.9;;;;;;;-1.19;66.5957;95268.05;;;;
2021/03/08 05:36:53;;;;;;;46.79999;23.35;;;;;;;-1.24;66.80762;95267.3;;;;
2021/03/08 05:37:54;;;;;;;46.79999;23.35;;;;;;;-1.24;66.80762;95267.3;;;;
2021/03/08 05:38:55;;;;;;;46.79999;23.35;;;;;;;-1.24;66.80762;95267.3;;;;
2021/03/08 05:39:56;;;;;;;46.79999;23.35;;;;;;;-1.24;66.80762;95267.3;;;;
2021/03/08 05:40:59;;;;;;;46.79999;23.35;;;;;;;-1.24;66.80762;95267.3;;;;
2021/03/08 05:42:05;;;;;;;46.79999;23.35;;;;;;;-1.24;66.80762;95267.3;;;;
2021/03/08 05:43:09;;;;;;;46.79999;23.35;;;;;;;-1.24;66.80762;95267.3;;;;
2021/03/08 05:44:13;;;;;;;46.79999;23.35;;;;;;;-1.24;66.80762;95267.3;;;;
2021/03/08 05:45:17;;;;;;;46.79999;23.35;;;;;;;-1.24;66.80762;95267.3;;;;
2021/03/08 05:46:19;;;;;;;46.79999;23.35;;;;;;;-1.24;66.80762;95267.3;;;;
2021/03/08 05:47:26;;;;;;;46.79999;23.35;;;;;;;-1.24;66.80762;95267.3;;;;
2021/03/08 05:53:13;;;;;;;51.65;25.15;;;;;;;-1.21;66.70703;95282.89;;;;
2021/03/08 05:58:33;;;;;;;62.74999;28.15;;;;;;;-0.96;66.7041;95271.3;;;;
2021/03/08 05:59:46;;;;;;;62.74999;28.15;;;;;;;-0.96;66.7041;95271.3;;;;
2021/03/08 06:01:02;;;;;;;62.74999;28.15;;;;;;;-0.96;66.7041;95271.3;;;;
2021/03/08 06:02:23;;;;;;;62.74999;28.15;;;;;;;-0.96;66.7041;95271.3;;;;
2021/03/08 06:03:52;;;;;;;62.74999;28.15;;;;;;;-0.96;66.7041;95271.3;;;;